createdAt,value
2023-02-24T00:02:01.400Z,101499.69
2023-02-24T00:04:38.672Z,101500.75
2023-02-24T00:07:06.711Z,101500.13
2023-02-24T00:09:33.590Z,101497.59
2023-02-24T00:12:03.582Z,101492.47
2023-02-24T00:14:33.727Z,101485.47
2023-02-24T00:17:00.859Z,101491.91
2023-02-24T00:19:32.789Z,101489.41
2023-02-24T00:22:01.189Z,101484.19
2023-02-24T00:24:28.750Z,101481.69
2023-02-24T00:27:01.150Z,101481.75
2023-02-24T00:29:29.497Z,101481.91
2023-02-24T00:32:01.135Z,101473.97
2023-02-24T00:34:34.064Z,101471.38
2023-02-24T00:37:01.388Z,101474.03
2023-02-24T00:39:30.524Z,101467.03
2023-02-24T00:42:06.859Z,101467.97
2023-02-24T00:44:44.460Z,101467.09
2023-02-24T00:47:12.167Z,101470.66
2023-02-24T00:49:42.453Z,101471.50
2023-02-24T00:52:14.459Z,101463.41
2023-02-24T00:54:42.476Z,101468.69
2023-02-24T00:57:09.403Z,101461.47
2023-02-24T00:59:37.273Z,101461.38
2023-02-24T01:02:07.024Z,101460.34
2023-02-24T01:04:34.436Z,101444.25
2023-02-24T01:07:01.681Z,101445.81
2023-02-24T01:09:30.614Z,101445.66
2023-02-24T01:12:16.514Z,101441.97
2023-02-24T01:14:47.912Z,101434.66
2023-02-24T01:17:16.595Z,101423.88
2023-02-24T01:19:44.771Z,101423.72
2023-02-24T01:22:15.057Z,101420.00
2023-02-24T01:24:43.372Z,101418.22
2023-02-24T01:27:12.777Z,101416.41
2023-02-24T01:29:39.606Z,101415.44
2023-02-24T01:32:13.001Z,101419.00
2023-02-24T01:34:42.578Z,101415.28
2023-02-24T01:37:10.385Z,101411.50
2023-02-24T01:39:37.522Z,101392.66
2023-02-24T01:42:06.407Z,101396.97
2023-02-24T01:44:33.292Z,101398.63
2023-02-24T01:47:03.987Z,101390.59
2023-02-24T01:49:41.268Z,101392.19
2023-02-24T01:52:12.727Z,101384.94
2023-02-24T01:54:49.186Z,101377.75
2023-02-24T01:57:21.251Z,101374.06
2023-02-24T01:59:52.290Z,101372.19
2023-02-24T02:02:20.046Z,101360.56
2023-02-24T02:04:57.149Z,101359.59
2023-02-24T02:07:28.564Z,101355.91
2023-02-24T02:10:00.272Z,101345.09
2023-02-24T02:12:28.517Z,101341.31
2023-02-24T02:14:59.472Z,101339.50
2023-02-24T02:17:33.255Z,101327.78
2023-02-24T02:20:00.528Z,101326.72
2023-02-24T02:22:42.401Z,101323.03
2023-02-24T02:25:16.101Z,101315.78
2023-02-24T02:28:12.036Z,101306.00
2023-02-24T02:30:39.345Z,101304.97
2023-02-24T02:33:27.691Z,101295.13
2023-02-24T02:36:07.466Z,101298.75
2023-02-24T02:38:49.257Z,101294.28
2023-02-24T02:41:51.835Z,101297.03
2023-02-24T02:44:24.720Z,101291.75
2023-02-24T02:47:00.569Z,101286.50
2023-02-24T02:49:35.708Z,101282.09
2023-02-24T02:52:15.505Z,101274.94
2023-02-24T02:54:52.942Z,101274.06
2023-02-24T02:57:29.621Z,101275.97
2023-02-24T03:00:21.354Z,101269.91
2023-02-24T03:02:52.076Z,101268.28
2023-02-24T03:05:29.733Z,101270.25
2023-02-24T03:08:00.806Z,101261.44
2023-02-24T03:10:32.456Z,101265.16
2023-02-24T03:13:01.750Z,101255.53
2023-02-24T03:15:32.806Z,101256.66
2023-02-24T03:18:10.439Z,101256.03
2023-02-24T03:20:43.778Z,101253.59
2023-02-24T03:23:21.884Z,101252.88
2023-02-24T03:26:01.528Z,101257.63
2023-02-24T03:28:45.060Z,101252.53
2023-02-24T03:31:51.009Z,101244.06
2023-02-24T03:34:42.863Z,101241.72
2023-02-24T03:37:09.787Z,101238.50
2023-02-24T03:39:36.652Z,101231.59
2023-02-24T03:42:15.661Z,101225.63
2023-02-24T03:44:42.292Z,101225.00
2023-02-24T03:47:09.656Z,101223.53
2023-02-24T03:49:38.448Z,101216.69
2023-02-24T03:52:23.296Z,101212.69
2023-02-24T03:54:59.158Z,101217.53
2023-02-24T03:57:54.807Z,101219.66
2023-02-24T04:00:38.512Z,101218.97
2023-02-24T04:03:14.352Z,101220.06
2023-02-24T04:05:53.489Z,101210.56
2023-02-24T04:08:23.409Z,101211.66
2023-02-24T04:11:05.681Z,101209.06
2023-02-24T04:13:46.492Z,101210.31
2023-02-24T04:16:28.940Z,101200.97
2023-02-24T04:19:03.724Z,101204.03
2023-02-24T04:21:33.514Z,101199.78
2023-02-24T04:24:08.592Z,101207.94
2023-02-24T04:26:40.528Z,101205.44
2023-02-24T04:29:09.807Z,101204.88
2023-02-24T04:31:39.167Z,101202.53
2023-02-24T04:34:09.529Z,101202.78
2023-02-24T04:36:38.896Z,101187.84
2023-02-24T04:39:07.204Z,101194.13
2023-02-24T04:41:35.826Z,101191.47
2023-02-24T04:44:02.526Z,101188.72
2023-02-24T04:46:32.541Z,101184.25
2023-02-24T04:49:00.407Z,101180.63
2023-02-24T04:51:26.941Z,101177.88
2023-02-24T04:53:55.458Z,101174.19
2023-02-24T04:56:22.464Z,101168.78
2023-02-24T04:58:49.117Z,101169.66
2023-02-24T05:01:15.739Z,101166.13
2023-02-24T05:03:42.818Z,101159.84
2023-02-24T05:06:16.225Z,101160.72
2023-02-24T05:08:43.644Z,101160.72
2023-02-24T05:11:16.089Z,101156.19
2023-02-24T05:13:45.920Z,101156.13
2023-02-24T05:16:15.118Z,101142.63
2023-02-24T05:18:42.723Z,101141.59
2023-02-24T05:21:32.669Z,101139.72
2023-02-24T05:23:59.806Z,101140.50
2023-02-24T05:26:26.763Z,101128.78
2023-02-24T05:28:56.672Z,101135.78
2023-02-24T05:31:26.508Z,101125.91
2023-02-24T05:33:58.448Z,101114.19
2023-02-24T05:36:27.021Z,101117.56
2023-02-24T05:39:07.708Z,101113.78
2023-02-24T05:41:38.856Z,101103.91
2023-02-24T05:44:13.473Z,101099.34
2023-02-24T05:46:44.580Z,101102.72
2023-02-24T05:49:23.604Z,101097.38
2023-02-24T05:51:55.241Z,101092.91
2023-02-24T05:54:29.424Z,101087.47
2023-02-24T05:57:02.377Z,101088.25
2023-02-24T05:59:38.117Z,101079.22
2023-02-24T06:02:07.721Z,101080.09
2023-02-24T06:04:53.746Z,101078.28
2023-02-24T06:07:25.893Z,101073.78
2023-02-24T06:09:57.876Z,101068.28
2023-02-24T06:12:26.729Z,101064.66
2023-02-24T06:14:53.786Z,101062.78
2023-02-24T06:17:21.538Z,101064.44
2023-02-24T06:19:50.644Z,101063.47
2023-02-24T06:22:20.238Z,101062.53
2023-02-24T06:24:49.288Z,101055.38
2023-02-24T06:27:21.456Z,101049.19
2023-02-24T06:29:50.917Z,101041.16
2023-02-24T06:32:23.859Z,101037.47
2023-02-24T06:34:51.858Z,101030.22
2023-02-24T06:37:18.440Z,101019.47
2023-02-24T06:39:45.643Z,101026.44
2023-02-24T06:42:13.200Z,101022.91
2023-02-24T06:44:41.290Z,101020.22
2023-02-24T06:47:13.171Z,101021.97
2023-02-24T06:49:39.980Z,101017.47
2023-02-24T06:52:06.604Z,101018.25
2023-02-24T06:54:35.960Z,101017.31
2023-02-24T06:57:03.482Z,101010.06
2023-02-24T06:59:30.306Z,101006.53
2023-02-24T07:01:58.374Z,101000.25
2023-02-24T07:04:28.279Z,100998.59
2023-02-24T07:06:58.312Z,100994.91
2023-02-24T07:09:27.084Z,100999.22
2023-02-24T07:11:56.098Z,100994.59
2023-02-24T07:14:27.995Z,100989.09
2023-02-24T07:16:55.172Z,100996.94
2023-02-24T07:19:32.387Z,100986.06
2023-02-24T07:22:03.398Z,100975.19
2023-02-24T07:24:36.542Z,100991.06
2023-02-24T07:27:06.412Z,100973.22
2023-02-24T07:29:34.585Z,100976.66
2023-02-24T07:32:05.586Z,100980.09
2023-02-24T07:34:33.936Z,100975.63
2023-02-24T07:37:06.620Z,100976.41
2023-02-24T07:39:34.133Z,100974.41
2023-02-24T07:42:00.667Z,100966.31
2023-02-24T07:44:29.304Z,100966.03
2023-02-24T07:46:56.914Z,100958.88
2023-02-24T07:49:30.049Z,100949.91
2023-02-24T07:51:58.010Z,100947.25
2023-02-24T07:54:27.734Z,100949.72
2023-02-24T07:56:57.699Z,100932.66
2023-02-24T07:59:30.172Z,100937.81
2023-02-24T08:01:57.483Z,100931.44
2023-02-24T08:04:27.841Z,100930.47
2023-02-24T08:06:59.114Z,100934.69
2023-02-24T08:09:47.011Z,100931.94
2023-02-24T08:12:21.627Z,100927.25
2023-02-24T08:14:53.451Z,100915.53
2023-02-24T08:17:26.578Z,100917.06
2023-02-24T08:20:14.829Z,100915.94
2023-02-24T08:22:44.460Z,100906.84
2023-02-24T08:25:18.615Z,100910.25
2023-02-24T08:28:06.737Z,100900.31
2023-02-24T08:30:40.853Z,100895.63
2023-02-24T08:33:11.118Z,100898.88
2023-02-24T08:35:44.463Z,100895.06
2023-02-24T08:38:25.952Z,100895.78
2023-02-24T08:40:55.739Z,100903.44
2023-02-24T08:43:33.189Z,100892.53
2023-02-24T08:46:25.634Z,100886.03
2023-02-24T08:48:57.815Z,100887.66
2023-02-24T08:51:35.457Z,100882.97
2023-02-24T08:54:15.590Z,100874.66
2023-02-24T08:56:44.761Z,100871.69
2023-02-24T08:59:29.116Z,100864.34
2023-02-24T09:02:17.487Z,100867.78
2023-02-24T09:05:00.133Z,100862.31
2023-02-24T09:07:41.153Z,100856.97
2023-02-24T09:10:17.910Z,100854.97
2023-02-24T09:12:45.174Z,100840.50
2023-02-24T09:15:15.429Z,100840.31
2023-02-24T09:17:45.506Z,100840.22
2023-02-24T09:20:59.356Z,100827.69
2023-02-24T09:23:45.862Z,100816.78
2023-02-24T09:26:14.145Z,100810.38
2023-02-24T09:28:54.799Z,100808.38
2023-02-24T09:31:24.646Z,100812.69
2023-02-24T09:33:51.484Z,100805.41
2023-02-24T09:36:30.097Z,100817.63
2023-02-24T09:38:59.292Z,100803.19
2023-02-24T09:41:53.867Z,100798.50
2023-02-24T09:44:45.886Z,100801.81
2023-02-24T09:47:18.847Z,100793.69
2023-02-24T09:49:59.091Z,100785.56
2023-02-24T09:52:43.219Z,100794.25
2023-02-24T09:55:35.815Z,100786.97
2023-02-24T09:58:43.779Z,100773.56
2023-02-24T10:01:57.094Z,100781.50
2023-02-24T10:04:40.676Z,100765.44
2023-02-24T10:07:15.607Z,100764.34
2023-02-24T10:10:20.602Z,100763.41
2023-02-24T10:12:52.857Z,100756.97
2023-02-24T10:15:47.193Z,100756.88
2023-02-24T10:18:41.069Z,100745.19
2023-02-24T10:21:30.803Z,100753.13
2023-02-24T10:24:15.814Z,100743.25
2023-02-24T10:27:00.746Z,100738.66
2023-02-24T10:29:43.388Z,100749.19
2023-02-24T10:32:33.888Z,100742.84
2023-02-24T10:35:03.697Z,100734.72
2023-02-24T10:37:30.443Z,100740.94
2023-02-24T10:40:09.584Z,100739.00
2023-02-24T10:42:44.499Z,100726.34
2023-02-24T10:45:18.489Z,100720.78
2023-02-24T10:47:56.691Z,100723.25
2023-02-24T10:50:54.922Z,100726.69
2023-02-24T10:53:28.692Z,100721.13
2023-02-24T10:56:27.398Z,100721.75
2023-02-24T10:59:25.549Z,100710.94
2023-02-24T11:02:24.654Z,100703.63
2023-02-24T11:05:04.440Z,100709.75
2023-02-24T11:07:46.899Z,100714.06
2023-02-24T11:10:26.395Z,100694.34
2023-02-24T11:13:13.776Z,100691.44
2023-02-24T11:16:12.305Z,100685.13
2023-02-24T11:18:40.331Z,100681.38
2023-02-24T11:21:11.155Z,100675.88
2023-02-24T11:23:45.062Z,100672.13
2023-02-24T11:26:23.568Z,100667.53
2023-02-24T11:29:00.995Z,100669.13
2023-02-24T11:31:45.771Z,100661.94
2023-02-24T11:34:30.785Z,100660.22
2023-02-24T11:37:20.460Z,100648.75
2023-02-24T11:40:05.533Z,100645.22
2023-02-24T11:42:39.033Z,100643.28
2023-02-24T11:45:27.584Z,100636.94
2023-02-24T11:48:19.925Z,100629.75
2023-02-24T11:51:07.258Z,100641.44
2023-02-24T11:53:51.707Z,100633.41
2023-02-24T11:56:39.933Z,100629.97
2023-02-24T11:59:25.382Z,100632.66
2023-02-24T12:02:08.050Z,100630.94
2023-02-24T12:04:46.435Z,100614.97
2023-02-24T12:07:28.431Z,100619.47
2023-02-24T12:10:14.037Z,100617.53
2023-02-24T12:12:51.834Z,100611.31
2023-02-24T12:15:26.620Z,100607.56
2023-02-24T12:18:14.762Z,100601.09
2023-02-24T12:20:48.279Z,100597.56
2023-02-24T12:23:21.062Z,100578.78
2023-02-24T12:26:09.122Z,100579.53
2023-02-24T12:28:58.973Z,100573.97
2023-02-24T12:31:53.525Z,100565.69
2023-02-24T12:34:43.517Z,100556.78
2023-02-24T12:37:22.266Z,100557.41
2023-02-24T12:40:01.390Z,100555.38
2023-02-24T12:42:41.236Z,100548.06
2023-02-24T12:45:38.269Z,100546.97
2023-02-24T12:48:23.667Z,100545.03
2023-02-24T12:51:07.504Z,100548.56
2023-02-24T12:53:49.867Z,100546.75
2023-02-24T12:56:35.286Z,100548.56
2023-02-24T12:59:05.526Z,100536.13
2023-02-24T13:01:47.383Z,100532.59
2023-02-24T13:04:37.489Z,100529.16
2023-02-24T13:07:17.739Z,100531.84
2023-02-24T13:10:30.303Z,100521.22
2023-02-24T13:13:25.563Z,100515.63
2023-02-24T13:15:54.906Z,100512.72
2023-02-24T13:18:39.557Z,100529.47
2023-02-24T13:21:19.444Z,100525.56
2023-02-24T13:24:21.435Z,100518.16
2023-02-24T13:26:48.166Z,100504.53
2023-02-24T13:29:16.542Z,100500.88
2023-02-24T13:31:51.558Z,100506.13
2023-02-24T13:34:44.327Z,100486.38
2023-02-24T13:37:11.486Z,100481.53
2023-02-24T13:39:44.370Z,100463.34
2023-02-24T13:42:20.015Z,100471.06
2023-02-24T13:45:13.316Z,100474.28
2023-02-24T13:48:07.350Z,100471.13
2023-02-24T13:50:55.797Z,100458.94
2023-02-24T13:53:34.248Z,100456.75
2023-02-24T13:56:20.128Z,100458.34
2023-02-24T13:59:15.869Z,100460.78
2023-02-24T14:01:49.789Z,100462.16
2023-02-24T14:04:32.037Z,100455.91
2023-02-24T14:07:04.709Z,100443.97
2023-02-24T14:09:38.612Z,100433.84
2023-02-24T14:12:18.253Z,100441.41
2023-02-24T14:14:46.353Z,100429.44
2023-02-24T14:17:26.378Z,100437.75
2023-02-24T14:19:53.016Z,100421.88
2023-02-24T14:22:21.409Z,100415.56
2023-02-24T14:24:48.231Z,100406.50
2023-02-24T14:27:26.023Z,100407.09
2023-02-24T14:29:53.280Z,100411.19
2023-02-24T14:32:23.480Z,100402.72
2023-02-24T14:34:50.961Z,100414.19
2023-02-24T14:37:23.021Z,100418.97
2023-02-24T14:39:55.192Z,100400.00
2023-02-24T14:42:22.653Z,100413.47
2023-02-24T14:44:52.247Z,100411.75
2023-02-24T14:47:21.444Z,100399.88
2023-02-24T14:49:59.873Z,100402.06
2023-02-24T14:52:26.798Z,100400.09
2023-02-24T14:54:58.304Z,100398.25
2023-02-24T14:57:29.592Z,100399.38
2023-02-24T15:00:11.397Z,100389.56
2023-02-24T15:02:45.098Z,100380.38
2023-02-24T15:05:12.133Z,100386.50
2023-02-24T15:07:39.893Z,100371.19
2023-02-24T15:10:07.888Z,100374.63
2023-02-24T15:12:47.297Z,100386.97
2023-02-24T15:15:16.905Z,100376.06
2023-02-24T15:17:43.846Z,100391.22
2023-02-24T15:20:26.409Z,100388.81
2023-02-24T15:22:52.996Z,100398.13
2023-02-24T15:25:33.759Z,100397.19
2023-02-24T15:28:34.497Z,100391.94
2023-02-24T15:31:19.499Z,100398.56
2023-02-24T15:33:55.317Z,100381.75
2023-02-24T15:36:25.575Z,100378.84
2023-02-24T15:38:56.820Z,100392.66
2023-02-24T15:41:23.922Z,100387.66
2023-02-24T15:43:56.418Z,100378.13
2023-02-24T15:46:29.878Z,100368.63
2023-02-24T15:48:58.266Z,100367.03
2023-02-24T15:51:27.881Z,100375.34
2023-02-24T15:53:54.720Z,100367.53
2023-02-24T15:56:21.513Z,100378.53
2023-02-24T15:58:48.295Z,100378.91
2023-02-24T16:01:14.973Z,100380.94
2023-02-24T16:03:41.768Z,100384.63
2023-02-24T16:06:19.179Z,100385.59
2023-02-24T16:08:48.361Z,100379.13
2023-02-24T16:11:19.302Z,100372.75
2023-02-24T16:13:52.900Z,100371.69
2023-02-24T16:16:21.152Z,100371.44
2023-02-24T16:18:48.044Z,100373.03
2023-02-24T16:21:14.560Z,100378.88
2023-02-24T16:23:41.203Z,100372.41
2023-02-24T16:26:20.315Z,100373.13
2023-02-24T16:28:56.387Z,100371.31
2023-02-24T16:31:27.245Z,100380.34
2023-02-24T16:33:55.808Z,100377.66
2023-02-24T16:36:25.326Z,100380.34
2023-02-24T16:38:52.445Z,100383.03
2023-02-24T16:41:19.305Z,100382.91
2023-02-24T16:43:46.016Z,100382.19
2023-02-24T16:46:19.662Z,100383.16
2023-02-24T16:48:49.872Z,100390.38
2023-02-24T16:51:16.995Z,100392.44
2023-02-24T16:53:45.159Z,100396.25
2023-02-24T16:56:12.623Z,100392.94
2023-02-24T16:58:39.562Z,100405.78
2023-02-24T17:01:06.338Z,100396.94
2023-02-24T17:03:44.917Z,100398.19
2023-02-24T17:06:11.666Z,100401.97
2023-02-24T17:08:38.798Z,100402.34
2023-02-24T17:11:05.549Z,100402.59
2023-02-24T17:13:32.083Z,100406.25
2023-02-24T17:15:58.822Z,100416.25
2023-02-24T17:18:26.282Z,100412.09
2023-02-24T17:20:53.541Z,100417.72
2023-02-24T17:23:20.162Z,100417.00
2023-02-24T17:25:53.872Z,100421.63
2023-02-24T17:28:20.810Z,100419.31
2023-02-24T17:30:47.542Z,100417.72
2023-02-24T17:33:14.547Z,100426.13
2023-02-24T17:35:42.460Z,100425.41
2023-02-24T17:38:13.742Z,100431.00
2023-02-24T17:40:41.773Z,100416.84
2023-02-24T17:43:08.404Z,100425.03
2023-02-24T17:45:35.113Z,100442.22
2023-02-24T17:48:02.085Z,100448.94
2023-02-24T17:50:28.792Z,100452.94
2023-02-24T17:52:56.748Z,100455.25
2023-02-24T17:55:23.552Z,100458.28
2023-02-24T17:57:50.175Z,100456.78
2023-02-24T18:00:17.420Z,100453.59
2023-02-24T18:02:44.321Z,100462.13
2023-02-24T18:05:11.098Z,100470.50
2023-02-24T18:07:37.853Z,100475.34
2023-02-24T18:10:05.301Z,100477.38
2023-02-24T18:12:31.929Z,100489.22
2023-02-24T18:15:07.898Z,100496.53
2023-02-24T18:17:36.682Z,100498.22
2023-02-24T18:20:08.370Z,100503.72
2023-02-24T18:22:35.647Z,100486.75
2023-02-24T18:25:02.383Z,100493.94
2023-02-24T18:27:29.055Z,100500.06
2023-02-24T18:29:55.853Z,100503.94
2023-02-24T18:32:22.648Z,100508.69
2023-02-24T18:34:49.524Z,100507.19
2023-02-24T18:37:16.120Z,100510.84
2023-02-24T18:39:42.763Z,100503.75
2023-02-24T18:42:09.827Z,100502.91
2023-02-24T18:44:36.647Z,100507.41
2023-02-24T18:47:09.339Z,100511.94
2023-02-24T18:49:36.523Z,100505.69
2023-02-24T18:52:05.362Z,100510.22
2023-02-24T18:54:32.811Z,100508.72
2023-02-24T18:56:59.447Z,100507.25
2023-02-24T18:59:26.084Z,100508.31
2023-02-24T19:01:54.023Z,100511.84
2023-02-24T19:04:20.689Z,100517.09
2023-02-24T19:06:49.119Z,100528.69
2023-02-24T19:09:16.607Z,100524.19
2023-02-24T19:11:43.262Z,100526.88
2023-02-24T19:14:12.176Z,100533.94
2023-02-24T19:16:38.866Z,100523.22
2023-02-24T19:19:05.933Z,100517.97
2023-02-24T19:21:33.697Z,100514.44
2023-02-24T19:24:03.996Z,100518.81
2023-02-24T19:26:30.858Z,100518.81
2023-02-24T19:28:58.628Z,100521.72
2023-02-24T19:31:28.595Z,100523.78
2023-02-24T19:33:57.127Z,100522.28
2023-02-24T19:36:24.574Z,100522.72
2023-02-24T19:38:51.824Z,100520.34
2023-02-24T19:41:18.565Z,100526.91
2023-02-24T19:43:45.512Z,100524.34
2023-02-24T19:46:14.057Z,100524.66
2023-02-24T19:48:41.140Z,100524.66
2023-02-24T19:51:22.219Z,100532.72
2023-02-24T19:53:52.837Z,100531.84
2023-02-24T19:56:27.955Z,100540.97
2023-02-24T19:58:59.526Z,100533.03
2023-02-24T20:01:28.164Z,100527.78
2023-02-24T20:04:00.584Z,100526.50
2023-02-24T20:06:33.595Z,100526.94
2023-02-24T20:09:01.022Z,100529.19
2023-02-24T20:11:32.984Z,100530.50
2023-02-24T20:13:59.622Z,100539.81
2023-02-24T20:16:27.253Z,100548.28
2023-02-24T20:18:55.302Z,100551.50
2023-02-24T20:21:22.190Z,100564.34
2023-02-24T20:23:48.934Z,100559.31
2023-02-24T20:26:16.493Z,100551.56
2023-02-24T20:28:44.438Z,100556.16
2023-02-24T20:31:15.335Z,100560.78
2023-02-24T20:33:43.601Z,100560.13
2023-02-24T20:36:13.490Z,100559.25
2023-02-24T20:38:40.114Z,100568.25
2023-02-24T20:41:07.266Z,100570.94
2023-02-24T20:43:34.621Z,100571.78
2023-02-24T20:46:11.976Z,100574.38
2023-02-24T20:48:38.641Z,100564.41
2023-02-24T20:51:06.304Z,100570.63
2023-02-24T20:53:34.584Z,100580.16
2023-02-24T20:56:14.295Z,100583.50
2023-02-24T20:58:41.265Z,100592.09
2023-02-24T21:01:11.014Z,100598.84
2023-02-24T21:03:39.664Z,100597.56
2023-02-24T21:06:10.126Z,100594.56
2023-02-24T21:08:37.436Z,100593.41
2023-02-24T21:11:05.208Z,100589.88
2023-02-24T21:13:31.729Z,100594.47
2023-02-24T21:15:58.435Z,100590.09
2023-02-24T21:18:25.105Z,100589.31
2023-02-24T21:20:55.122Z,100592.97
2023-02-24T21:23:21.870Z,100587.81
2023-02-24T21:25:55.356Z,100584.41
2023-02-24T21:28:23.538Z,100587.06
2023-02-24T21:30:50.703Z,100573.56
2023-02-24T21:33:18.545Z,100567.16
2023-02-24T21:35:56.028Z,100590.41
2023-02-24T21:38:22.559Z,100583.97
2023-02-24T21:40:49.103Z,100604.34
2023-02-24T21:43:15.841Z,100598.13
2023-02-24T21:45:42.473Z,100596.63
2023-02-24T21:48:34.707Z,100598.66
2023-02-24T21:51:05.455Z,100586.22
2023-02-24T21:53:35.435Z,100587.28
2023-02-24T21:56:16.761Z,100594.56
2023-02-24T21:58:49.215Z,100602.59
2023-02-24T22:01:22.433Z,100610.84
2023-02-24T22:03:49.033Z,100602.16
2023-02-24T22:06:19.904Z,100603.19
2023-02-24T22:08:46.918Z,100604.25
2023-02-24T22:11:16.729Z,100606.19
2023-02-24T22:13:44.903Z,100606.50
2023-02-24T22:16:20.363Z,100608.31
2023-02-24T22:18:48.412Z,100604.88
2023-02-24T22:21:17.712Z,100605.94
2023-02-24T22:23:45.576Z,100600.81
2023-02-24T22:26:13.238Z,100600.91
2023-02-24T22:28:41.719Z,100597.38
2023-02-24T22:31:10.593Z,100600.91
2023-02-24T22:33:40.902Z,100600.03
2023-02-24T22:36:10.638Z,100598.22
2023-02-24T22:38:38.554Z,100596.50
2023-02-24T22:41:12.513Z,100598.44
2023-02-24T22:43:39.112Z,100596.81
2023-02-24T22:46:08.654Z,100593.38
2023-02-24T22:48:36.735Z,100605.06
2023-02-24T22:51:05.823Z,100604.31
2023-02-24T22:53:34.787Z,100605.47
2023-02-24T22:56:01.768Z,100618.84
2023-02-24T22:58:28.477Z,100626.13
2023-02-24T23:00:55.414Z,100620.00
2023-02-24T23:03:25.260Z,100629.88
2023-02-24T23:06:02.592Z,100630.91
2023-02-24T23:08:35.833Z,100640.13
2023-02-24T23:11:18.358Z,100645.75
2023-02-24T23:13:49.031Z,100649.41
2023-02-24T23:16:18.893Z,100653.13
2023-02-24T23:18:50.900Z,100646.06
2023-02-24T23:21:20.548Z,100629.25
2023-02-24T23:23:47.388Z,100624.75
2023-02-24T23:26:14.432Z,100628.28
2023-02-24T23:28:41.217Z,100637.28
2023-02-24T23:31:07.950Z,100638.19
2023-02-24T23:33:34.971Z,100646.44
2023-02-24T23:36:08.142Z,100652.94
2023-02-24T23:38:34.749Z,100651.41
2023-02-24T23:41:01.317Z,100646.25
2023-02-24T23:43:46.123Z,100657.88
2023-02-24T23:46:22.119Z,100657.13
2023-02-24T23:48:53.615Z,100654.66
2023-02-24T23:51:20.702Z,100662.88
2023-02-24T23:53:48.601Z,100664.78
2023-02-24T23:56:16.673Z,100665.66
2023-02-24T23:58:44.328Z,100661.34
